Latest Weather Observations for Point Stuart

IDD60801

Issued at 12:01 pm CST Tuesday 2 March 2021 (issued every 10 minutes, with the page automatically refreshed every 10 minutes)

About weather observations | Map of weather stations | Latest weather observations for NT | Other Formats
Station Details ID: 014254 Name: POINT STUART Lat: -12.24 Lon: 131.88 Height: 1.0 m
Data from the previous 72 hours. | See also: Recent months at Point Stuart
Date/Time
CST
Temp
°C
App
Temp
°C
Dew
Point
°C
Rel
Hum
%
Delta-T
°C
Wind Press
QNH
hPa
Press
MSL
hPa
Rain since
9am
mm
Dir  Spd
km/h
Gust
km/h
Spd
kts
Gust
kts
02/12:00pm 30.1 - - - - WNW 22 30 12 16 1009.2 1009.2 0.0
02/11:30am 30.8 - - - - WNW 22 26 12 14 1009.3 - 0.0
02/11:00am 29.9 - - - - W 19 24 10 13 1009.6 - 0.0
02/10:30am 29.1 - - - - WNW 17 20 9 11 1009.9 - 0.0
02/10:00am 28.7 - - - - WNW 15 19 8 10 1009.8 - 0.0
02/09:30am 28.6 - - - - WNW 15 17 8 9 1009.7 - 0.0
02/09:00am 28.5 - - - - WNW 13 17 7 9 1009.4 1009.4 0.0
02/08:30am 28.0 - - - - NW 13 17 7 9 1009.2 - 0.0
02/08:00am 27.3 - - - - NW 11 13 6 7 1009.0 - 0.0
02/07:30am 26.4 - - - - W 4 13 2 7 1008.6 - 0.0
02/07:00am 25.3 - - - - W 2 6 1 3 1008.3 - 0.0
02/06:30am 25.2 - - - - W 7 9 4 5 1007.9 - 0.0
02/06:00am 25.1 - - - - CALM 0 0 0 0 1007.6 1007.6 0.0
02/05:30am 25.0 - - - - CALM 0 0 0 0 1007.3 - 0.0
02/05:00am 25.1 - - - - SW 6 7 3 4 1007.1 - 0.0
02/04:30am 25.2 - - - - WSW 6 7 3 4 1007.1 - 0.0
02/04:00am 25.3 - - - - WSW 9 11 5 6 1007.1 - 0.0
02/03:30am 25.4 - - - - WSW 9 11 5 6 1007.2 - 0.0
02/03:00am 25.4 - - - - WSW 9 11 5 6 1007.5 1007.5 0.0
02/02:30am 25.5 - - - - W 11 13 6 7 1008.0 - 0.0
02/02:00am 25.6 - - - - WSW 2 6 1 3 1008.4 - 0.0
02/01:30am 25.6 - - - - WSW 7 9 4 5 1008.5 - 0.0
02/01:00am 25.6 - - - - SW 9 11 5 6 1008.7 - 0.0
02/12:30am 25.8 - - - - W 6 7 3 4 1009.1 - 0.0
02/12:00am 25.9 - - - - W 7 9 4 5 1009.6 1009.6 0.0
 
Date/Time
CST
Temp
°C
App
Temp
°C
Dew
Point
°C
Rel
Hum
%
Delta-T
°C
Wind Press
QNH
hPa
Press
MSL
hPa
Rain since
9am
mm
Dir  Spd
km/h
Gust
km/h
Spd
kts
Gust
kts
01/11:30pm 26.3 - - - - SE 6 13 3 7 1009.9 - 0.0
01/11:00pm 26.3 - - - - SSE 13 20 7 11 1010.3 - 0.0
01/10:30pm 26.5 - - - - SSW 13 15 7 8 1010.2 - 0.0
01/10:00pm 26.2 - - - - WSW 11 15 6 8 1010.2 - 0.0
01/09:30pm 26.4 - - - - WSW 17 22 9 12 1010.1 - 0.0
01/09:00pm 26.8 - - - - W 17 20 9 11 1009.9 1009.9 0.0
01/08:30pm 27.0 - - - - W 19 24 10 13 1009.8 - 0.0
01/08:00pm 27.3 - - - - WNW 20 28 11 15 1009.2 - 0.0
01/07:30pm 27.4 - - - - NW 22 32 12 17 1008.6 - 0.0
01/07:00pm 28.5 - - - - NW 19 28 10 15 1008.2 - 0.0
01/06:30pm 28.8 - - - - NW 17 24 9 13 1008.3 - 0.0
01/06:00pm 29.3 - - - - N 11 20 6 11 1007.7 1007.7 0.0
01/05:30pm 29.1 - - - - N 9 17 5 9 1007.5 - 0.0
01/05:00pm 29.2 - - - - N 9 17 5 9 1007.3 - 0.0
01/04:30pm 29.6 - - - - NNW 11 17 6 9 1007.0 - 0.0
01/04:00pm 30.1 - - - - NNW 9 15 5 8 1006.8 - 0.0
01/03:30pm 30.1 - - - - NNW 11 17 6 9 1006.9 - 0.0
01/03:00pm 30.1 - - - - NW 13 15 7 8 1007.2 1007.2 0.0
01/02:30pm 31.3 - - - - NW 15 20 8 11 1007.1 - 0.0
01/02:00pm 32.2 - - - - NW 15 22 8 12 1007.8 - 0.0
01/01:30pm 31.9 - - - - NW 13 20 7 11 1008.2 - 0.0
01/01:00pm 32.0 - - - - NW 13 20 7 11 1008.6 - 0.0
01/12:30pm 31.7 - - - - NW 15 20 8 11 1009.0 - 0.0
01/12:00pm 31.6 - - - - NW 13 19 7 10 1009.3 1009.3 0.0
01/11:30am 31.2 - - - - NW 15 19 8 10 1009.3 - 0.0
01/11:00am 29.4 - - - - WNW 15 20 8 11 1009.4 - 0.0
01/10:30am 29.8 - - - - WNW 15 19 8 10 1009.5 - 0.0
01/10:00am 29.8 - - - - WNW 15 20 8 11 1009.4 - 0.0
01/09:30am 29.3 - - - - WNW 15 20 8 11 1009.2 - 0.0
01/09:00am 29.7 - - - - NW 15 20 8 11 1009.1 1009.1 0.0
01/08:30am 28.3 - - - - CALM 0 6 0 3 1008.9 - 0.0
01/08:00am 27.0 - - - - W 6 7 3 4 1008.7 - 0.0
01/07:30am 26.3 - - - - CALM 0 0 0 0 1008.5 - 0.0
01/07:00am 25.9 - - - - CALM 0 6 0 3 1008.2 - 0.0
01/06:30am 25.8 - - - - SW 4 6 2 3 1007.9 - 0.0
01/06:00am 25.6 - - - - SSW 7 9 4 5 1007.7 1007.7 0.0
01/05:30am 25.8 - - - - SSW 7 9 4 5 1007.4 - 0.0
01/05:00am 25.5 - - - - SW 6 7 3 4 1007.2 - 0.0
01/04:30am 25.3 - - - - SW 6 7 3 4 1007.2 - 0.0
01/04:00am 25.3 - - - - WSW 9 9 5 5 1007.1 - 0.0
01/03:30am 25.6 - - - - W 7 9 4 5 1007.3 - 0.0
01/03:00am 25.6 - - - - W 7 9 4 5 1007.5 1007.5 0.0
01/02:30am 25.9 - - - - W 9 11 5 6 1007.7 - 0.0
01/02:00am 26.1 - - - - WSW 11 13 6 7 1007.8 - 0.0
01/01:30am 26.4 - - - - WSW 11 13 6 7 1008.0 - 0.0
01/01:00am 26.6 - - - - W 9 11 5 6 1008.3 - 0.0
01/12:30am 26.8 - - - - W 11 13 6 7 1008.6 - 0.0
01/12:00am 27.1 - - - - W 13 15 7 8 1008.7 1008.7 0.0
 
Date/Time
CST
Temp
°C
App
Temp
°C
Dew
Point
°C
Rel
Hum
%
Delta-T
°C
Wind Press
QNH
hPa
Press
MSL
hPa
Rain since
9am
mm
Dir  Spd
km/h
Gust
km/h
Spd
kts
Gust
kts
28/11:30pm 27.3 - - - - WSW 13 17 7 9 1008.5 - 0.0
28/11:00pm 27.7 - - - - WSW 17 20 9 11 1008.5 - 0.0
28/10:30pm 28.2 - - - - W 13 17 7 9 1008.3 - 0.0
28/10:00pm 28.3 - - - - W 13 19 7 10 1008.2 - 0.0
28/09:30pm 28.2 - - - - NW 13 19 7 10 1007.9 - 0.0
28/09:00pm 27.9 - - - - NW 15 22 8 12 1007.8 1007.8 0.0
28/08:30pm 27.7 - - - - NNW 15 20 8 11 1007.3 - 0.0
28/08:00pm 27.9 - - - - NNW 13 20 7 11 1006.8 - 0.0
28/07:30pm 28.1 - - - - NNW 11 15 6 8 1006.4 - 0.0
28/07:00pm 28.4 - - - - NNW 9 15 5 8 1006.2 - 0.0
28/06:30pm 29.0 - - - - NNW 11 17 6 9 1005.9 - 0.0
28/06:00pm 29.8 - - - - NNW 13 20 7 11 1005.4 1005.4 0.0
28/05:30pm 30.3 - - - - NNW 13 20 7 11 1005.3 - 0.0
28/05:00pm 31.6 - - - - NNW 15 24 8 13 1005.4 - 0.0
28/04:30pm 31.3 - - - - N 11 20 6 11 1005.3 - 0.0
28/04:00pm 32.2 - - - - N 11 17 6 9 1004.7 - 0.0
28/03:30pm 32.3 - - - - NNW 13 19 7 10 1005.2 - 0.0
28/03:00pm 32.3 - - - - NNW 11 20 6 11 1005.7 1005.7 0.0
28/02:30pm 32.1 - - - - NNW 11 19 6 10 1006.1 - 0.0
28/02:00pm 32.6 - - - - NNW 9 15 5 8 1006.6 - 0.0
28/01:30pm 31.7 - - - - WNW 11 17 6 9 1006.9 - 0.0
28/01:00pm 31.8 - - - - NW 11 17 6 9 1007.2 - 0.0
28/12:30pm 31.8 - - - - NW 9 15 5 8 1007.7 - 0.0
28/12:00pm 31.8 - - - - NW 11 20 6 11 1008.1 1008.1 0.0
28/11:30am 32.0 - - - - NNW 11 15 6 8 1008.4 - 0.0
28/11:00am 31.5 - - - - NW 11 17 6 9 1008.6 - 0.0
28/10:30am 30.8 - - - - W 9 11 5 6 1008.6 - 0.0
28/10:00am 29.9 - - - - NW 9 15 5 8 1008.8 - 0.0
28/09:30am 29.2 - - - - NW 9 13 5 7 1008.7 - 0.0
28/09:00am 29.0 - - - - NW 9 13 5 7 1008.6 1008.6 0.0
28/08:30am 28.7 - - - - WNW 9 13 5 7 1008.3 - 0.0
28/08:00am 27.5 - - - - CALM 0 0 0 0 1007.8 - 0.0
28/07:30am 26.5 - - - - WSW 2 6 1 3 1007.3 - 0.0
28/07:00am 26.1 - - - - WSW 9 9 5 5 1007.0 - 0.0
28/06:30am 26.0 - - - - W 9 11 5 6 1006.8 - 0.0
28/06:00am 25.7 - - - - W 6 7 3 4 1006.7 1006.7 0.0
28/05:30am 25.6 - - - - CALM 0 0 0 0 1006.5 - 0.0
28/05:00am 25.5 - - - - CALM 0 0 0 0 1006.2 - 0.0
28/04:30am 25.7 - - - - CALM 0 0 0 0 1006.2 - 0.0
28/04:00am 25.8 - - - - NNW 6 7 3 4 1006.1 - 0.0
28/03:30am 26.0 - - - - N 6 7 3 4 1006.3 - 0.0
28/03:00am 25.9 - - - - NW 6 7 3 4 1006.6 1006.6 0.0
28/02:30am 26.1 - - - - NW 6 7 3 4 1006.8 - 0.0
28/02:00am 26.5 - - - - WNW 9 11 5 6 1006.7 - 0.0
28/01:30am 26.5 - - - - NNW 11 15 6 8 1006.7 - 0.0
28/01:00am 26.7 - - - - NW 13 20 7 11 1006.8 - 0.0
28/12:30am 26.3 - - - - NNW 11 17 6 9 1006.9 - 0.0
28/12:00am 26.5 - - - - NNW 7 11 4 6 1006.9 1006.9 0.0
 
Date/Time
CST
Temp
°C
App
Temp
°C
Dew
Point
°C
Rel
Hum
%
Delta-T
°C
Wind Press
QNH
hPa
Press
MSL
hPa
Rain since
9am
mm
Dir  Spd
km/h
Gust
km/h
Spd
kts
Gust
kts
27/11:30pm 26.1 - - - - NNW 11 15 6 8 1007.1 - 0.0
27/11:00pm 26.3 - - - - NW 13 17 7 9 1007.0 - 0.0
27/10:30pm 26.2 - - - - NNW 13 17 7 9 1006.8 - 0.0
27/10:00pm 26.0 - - - - NNW 11 15 6 8 1006.4 - 0.0
27/09:30pm 25.9 - - - - N 6 7 3 4 1006.0 - 0.0
27/09:00pm 26.2 - - - - NNW 6 7 3 4 1005.6 1005.6 0.0
27/08:30pm 26.2 - - - - N 7 9 4 5 1005.0 - 0.0
27/08:00pm 26.6 - - - - NNE 7 9 4 5 1004.6 - 0.0
27/07:30pm 27.2 - - - - N 7 9 4 5 1004.5 - 0.0
27/07:00pm 28.4 - - - - N 2 6 1 3 1004.4 - 0.0
27/06:30pm 29.6 - - - - N 6 9 3 5 1004.2 - 0.0
27/06:00pm 29.7 - - - - NNW 7 13 4 7 1004.0 1004.0 0.0
27/05:30pm 29.8 - - - - NNW 9 13 5 7 1003.8 - 0.0
27/05:00pm 30.3 - - - - N 7 13 4 7 1003.6 - 0.0
27/04:30pm 30.9 - - - - NNW 9 15 5 8 1003.7 - 0.0
27/04:00pm 31.0 - - - - N 9 13 5 7 1003.8 - 0.0
27/03:30pm 31.3 - - - - N 9 15 5 8 1003.8 - 0.0
27/03:00pm 32.0 - - - - N 9 13 5 7 1004.1 1004.1 0.0
27/02:30pm 31.8 - - - - NNW 9 15 5 8 1004.3 - 0.0
27/02:00pm 32.1 - - - - N 7 11 4 6 1004.6 - 0.0
27/01:30pm 31.2 - - - - NNW 9 15 5 8 1005.3 - 0.0
27/01:00pm 30.9 - - - - NNW 9 15 5 8 1005.8 - 0.0
27/12:30pm 31.7 - - - - NNW 9 17 5 9 1005.9 - 0.0

Other formats

Comma delimited format used in spreadsheet applications
http://www.bom.gov.au/fwo/IDD60801/IDD60801.94127.axf

JavaScript Object Notation format (JSON) in row-major order
http://www.bom.gov.au/fwo/IDD60801/IDD60801.94127.json

Data quality

Most of these data are generated automatically and are frequently updated. Quality checks on data are not normally performed. It is possible for incorrect values to appear. Refer to information at About Latest Weather Observations and please check the disclaimer before using these data.